• Join FlightAware (Why Join?)
  • Login
  • US Flag 
08:31AM EDT


 

Airport Tracker/Info


-or-


 

Live Flight TrackerFlight Track Log ✈ UPS1125 ✈ 15-Aug-2013 ✈ KJFK - KRFD

Flight Track Log - Related Links

Times and Time Zones

All times are in EDT time to prevent confusion due to time zone crossing. See the UPS1125 flight status page for this flight to view local times or setup timezone preferences in your user account.

Time Position Orientation Groundspeed Altitude Reporting Facility
EDT Latitude Longitude Course Direction KTS MPH feet Rate Location/Type
10:33PM 40.6420 -73.7700 180° South 124 143  Level FlightAware
10:34PM 40.6300 -73.7800 212° Southwest 150 173 700 2,460 Climbing FlightAware
10:34PM 40.6200 -73.7870 208° Southwest 145 167 1,500 1,800 Climbing FlightAware
10:34PM 40.6100 -73.7940 208° Southwest 162 186 1,700 660 Climbing FlightAware
10:35PM 40.5920 -73.8090 212° Southwest 192 221 2,000 960 Climbing FlightAware
10:35PM 40.5820 -73.8160 208° Southwest 210 242 2,300 1,500 Climbing FlightAware
10:35PM 40.5750 -73.8170 186° South 221 254 2,500 3,180 Climbing FlightAware
10:35PM 40.5470 -73.7984 153° Southeast 224 258 4,400 3,480 Climbing FlightAware ADS-B
10:36PM 40.5441 -73.7931 126° Southeast 236 272 4,600 3,000 Climbing FlightAware ADS-B
10:36PM 40.5312 -73.7499 111° Southeast 249 287 6,200 3,000 Climbing FlightAware ADS-B
10:36PM 40.5315 -73.7436 86° East 248 285 6,400 2,220 Climbing FlightAware ADS-B
10:36PM 40.5320 -73.7391 82° East 248 285 6,500 1,680 Climbing FlightAware ADS-B
10:36PM 40.5333 -73.7335 73° East 247 284 6,600 1,500 Climbing FlightAware ADS-B
10:36PM 40.5377 -73.7229 61° Northeast 244 281 6,800 1,620 Climbing FlightAware ADS-B
10:36PM 40.5398 -73.7194 52° Northeast 246 283 6,900 2,460 Climbing FlightAware ADS-B
10:37PM 40.5468 -73.7086 50° Northeast 253 291 7,300 2,820 Climbing FlightAware ADS-B
10:37PM 40.5532 -73.6997 47° Northeast 255 293 7,700 3,240 Climbing FlightAware ADS-B
10:37PM 40.5660 -73.6828 45° Northeast 258 297 8,600 3,360 Climbing FlightAware ADS-B
10:37PM 40.5781 -73.6667 45° Northeast 262 302 9,400 3,300 Climbing FlightAware ADS-B
10:38PM 40.5970 -73.6410 46° Northeast 270 311 10,600 3,240 Climbing FlightAware ADS-B
10:38PM 40.6081 -73.6246 48° Northeast 276 318 11,300 3,360 Climbing FlightAware ADS-B
10:38PM 40.6411 -73.5785 47° Northeast 281 323 13,400 3,300 Climbing FlightAware ADS-B
10:39PM 40.6518 -73.5699 31° Northeast 283 326 13,900 2,880 Climbing FlightAware ADS-B
10:39PM 40.6702 -73.5643 13° North 281 323 14,600 2,760 Climbing FlightAware ADS-B
10:39PM 40.6848 -73.5639 North 284 327 15,100 2,460 Climbing FlightAware ADS-B
10:40PM 40.7277 -73.5646 359° North 290 334 16,400 1,860 Climbing FlightAware ADS-B
10:40PM 40.7491 -73.5646 360° North 304 350 16,600 660 Climbing FlightAware ADS-B
10:40PM 40.7790 -73.5646 360° North 326 375 16,800 300 Climbing FlightAware ADS-B
10:40PM 40.8067 -73.5665 357° North 334 384 16,800  Level FlightAware ADS-B
10:41PM 40.8194 -73.5708 346° North 331 381 16,800  Level FlightAware ADS-B
10:41PM 40.8319 -73.5776 338° Northwest 339 390 16,800 120 Level FlightAware ADS-B
10:41PM 40.8880 -73.6152 333° Northwest 401 461 16,900 600 Climbing FlightAware ADS-B
10:42PM 40.9425 -73.6522 333° Northwest 422 486 17,500 1,020 Climbing FlightAware ADS-B
10:42PM 40.9941 -73.6908 331° Northwest 423 487 18,000 1,260 Climbing FlightAware ADS-B
10:43PM 41.0300 -73.7194 329° Northwest 425 489 18,600 1,440 Climbing FlightAware ADS-B
10:43PM 41.0470 -73.7369 322° Northwest 426 490 18,800 1,020 Climbing FlightAware ADS-B
10:43PM 41.0625 -73.7596 312° West 425 489 19,000 1,080 Climbing FlightAware ADS-B
10:43PM 41.0726 -73.7829 300° West 424 488 19,200 1,080 Climbing FlightAware ADS-B
10:43PM 41.0768 -73.7969 292° West 422 486 19,300 900 Climbing FlightAware ADS-B
10:44PM 41.0803 -73.8142 285° West 421 484 19,400 1,020 Climbing FlightAware ADS-B
10:44PM 41.0825 -73.8402 276° West 419 482 19,600 840 Climbing FlightAware ADS-B
10:44PM 41.0825 -73.8505 270° West 419 482 19,600 840 Level FlightAware ADS-B
10:44PM 41.0803 -73.8770 264° West 420 483 19,800 1,080 Climbing FlightAware ADS-B
10:44PM 41.0802 -73.8780 262° West 420 483 19,800 1,140 Level FlightAware ADS-B
10:44PM 41.0709 -73.9537 261° West 422 486 20,400 1,140 Climbing FlightAware ADS-B
10:44PM 41.0704 -73.9578 261° West 423 487 20,400 1,200 Level FlightAware ADS-B
10:45PM 41.0659 -74.0050 263° West 423 487 20,800 1,500 Climbing FlightAware ADS-B
10:45PM 41.0632 -74.0375 264° West 425 489 21,200 1,560 Climbing FlightAware ADS-B
10:45PM 41.0564 -74.1126 263° West 431 496 21,900 1,500 Climbing FlightAware ADS-B
10:46PM 41.0559 -74.1184 263° West 438 504 22,000 2,040 Climbing FlightAware ADS-B
10:46PM 41.0480 -74.1983 263° West 441 507 23,000 2,040 Climbing FlightAware ADS-B
10:46PM 41.0473 -74.2047 262° West 439 505 23,100 1,800 Climbing FlightAware ADS-B
10:47PM 41.0378 -74.2881 261° West 447 514 24,000 1,620 Climbing FlightAware ADS-B
10:47PM 41.0373 -74.2924 261° West 447 514 24,000 1,500 Level FlightAware ADS-B
10:47PM 41.0289 -74.3708 262° West 453 521 24,800 1,020 Climbing FlightAware ADS-B
10:48PM 41.0208 -74.4515 262° West 449 517 25,000 360 Climbing FlightAware ADS-B
10:48PM 41.0205 -74.4554 264° West 463 533 25,000  Level FlightAware ADS-B
10:48PM 41.0126 -74.5397 263° West 461 531 25,000 60 Level FlightAware ADS-B
10:49PM 41.0038 -74.6276 262° West 455 524 25,100  Climbing FlightAware ADS-B
10:49PM 40.9952 -74.7132 262° West 461 531 25,000  Descending FlightAware ADS-B
10:50PM 40.9866 -74.7968 262° West 456 525 25,100 600 Climbing FlightAware ADS-B
10:50PM 40.9779 -74.8803 262° West 458 527 25,600 1,140 Climbing FlightAware ADS-B
10:50PM 40.9724 -74.9264 261° West 460 529 26,000 1,380 Climbing FlightAware ADS-B
10:51PM 40.9612 -74.9868 256° West 463 533 26,500 1,680 Climbing FlightAware ADS-B
10:51PM 40.9403 -75.0697 252° West 459 528 27,500 1,860 Climbing FlightAware ADS-B
10:52PM 40.9195 -75.1491 251° West 456 525 28,400 1,860 Climbing FlightAware ADS-B
10:52PM 40.9017 -75.2290 254° West 452 520 29,400 1,860 Climbing FlightAware ADS-B
10:53PM 40.8854 -75.3087 255° West 448 516 30,300 1,860 Climbing FlightAware ADS-B
10:53PM 40.8692 -75.3886 255° West 443 510 31,300 1,980 Climbing FlightAware ADS-B
10:54PM 40.8634 -75.4278 259° West 441 507 31,800 2,040 Climbing FlightAware ADS-B
10:54PM 40.8611 -75.4573 264° West 440 506 32,200 1,800 Climbing FlightAware ADS-B
10:54PM 40.8612 -75.5078 270° West 440 506 32,700 1,680 Climbing FlightAware ADS-B
10:55PM 40.8693 -75.5892 278° West 437 503 33,600 1,320 Climbing FlightAware ADS-B
10:55PM 40.8780 -75.6718 278° West 430 495 34,100 480 Climbing FlightAware ADS-B
10:56PM 40.8866 -75.7512 278° West 427 491 34,100 -120 Level FlightAware ADS-B
10:56PM 40.8949 -75.8293 278° West 426 490 34,000  Descending FlightAware ADS-B
10:57PM 40.9032 -75.9080 278° West 427 491 34,100 60 Climbing FlightAware ADS-B
10:57PM 40.9115 -75.9870 278° West 429 494 34,100  Level FlightAware ADS-B
10:58PM 40.9198 -76.0663 278° West 430 495 34,100  Level FlightAware ADS-B
10:58PM 40.9298 -76.1615 278° West 431 496 34,100  Level FlightAware ADS-B
10:59PM 40.9392 -76.2518 278° West 433 498 34,100  Level FlightAware ADS-B
10:59PM 40.9475 -76.3324 278° West 434 499 34,100  Level FlightAware ADS-B
11:00PM 40.9557 -76.4128 278° West 435 501 34,100 -120 Level FlightAware ADS-B
11:00PM 40.9638 -76.4934 278° West 436 502 34,000  Descending FlightAware ADS-B
11:01PM 40.9720 -76.5741 278° West 437 503 34,100 60 Climbing FlightAware ADS-B
11:01PM 40.9809 -76.6625 278° West 438 504 34,100  Level FlightAware ADS-B
11:02PM 40.9889 -76.7426 278° West 439 505 34,100  Level FlightAware ADS-B
11:02PM 40.9984 -76.8377 278° West 439 505 34,100  Level FlightAware ADS-B
11:03PM 41.0081 -76.9361 277° West 440 506 34,100  Level FlightAware ADS-B
11:04PM 41.0162 -77.0183 277° West 440 506 34,100  Level FlightAware ADS-B
11:04PM 41.0240 -77.0996 277° West 438 504 34,100  Level FlightAware ADS-B
11:05PM 41.0319 -77.1819 277° West 438 504 34,100  Level FlightAware ADS-B
11:05PM 41.0403 -77.2701 277° West 439 505 34,100  Level FlightAware ADS-B
11:06PM 41.0487 -77.3580 277° West 439 505 34,100  Level FlightAware ADS-B
11:06PM 41.0562 -77.4378 277° West 440 506 34,100  Level FlightAware ADS-B
11:07PM 41.0638 -77.5193 277° West 440 506 34,100  Level FlightAware ADS-B
11:07PM 41.0729 -77.6185 277° West 440 506 34,100  Level FlightAware ADS-B
11:08PM 41.0820 -77.7210 277° West 439 505 34,100  Level FlightAware
11:08PM 41.0849 -77.7493 278° West 439 505 34,100  Level FlightAware ADS-B
11:09PM 41.0924 -77.8318 277° West 439 505 34,100  Level FlightAware ADS-B
11:09PM 41.0990 -77.9010 277° West 439 505 34,100  Level FlightAware
11:10PM 41.1080 -78.0030 277° West 439 505 34,100  Level FlightAware
11:10PM 41.1150 -78.0830 277° West 439 505 34,100  Level FlightAware
11:11PM 41.1230 -78.1760 277° West 439 505 34,100  Level FlightAware
11:12PM 41.1320 -78.2860 276° West 440 506 34,100  Level FlightAware
11:12PM 41.1390 -78.3650 277° West 440 506 34,100  Level FlightAware
11:13PM 41.1480 -78.4730 276° West 440 506 34,100  Level FlightAware
11:13PM 41.1570 -78.5830 276° West 439 505 34,100 -120 Level FlightAware
11:14PM 41.1650 -78.6770 276° West 439 505 34,000  Descending FlightAware
11:15PM 41.1730 -78.7710 276° West 438 504 34,100 60 Climbing FlightAware
11:15PM 41.1800 -78.8640 276° West 438 504 34,100  Level FlightAware
11:16PM 41.1880 -78.9570 277° West 439 505 34,100  Level FlightAware
11:16PM 41.1950 -79.0520 276° West 438 504 34,100  Level FlightAware
11:17PM 41.2030 -79.1450 277° West 438 504 34,100  Level FlightAware
11:17PM 41.2100 -79.2360 276° West 438 504 34,100  Level FlightAware
11:18PM 41.2170 -79.3320 276° West 438 504 34,100  Level FlightAware
11:19PM 41.2240 -79.4260 276° West 438 504 34,100  Level FlightAware
11:19PM 41.2320 -79.5340 276° West 439 505 34,100  Level FlightAware
11:20PM 41.2390 -79.6280 276° West 438 504 34,100  Level FlightAware
11:21PM 41.2470 -79.7330 276° West 438 504 34,100  Level FlightAware
11:21PM 41.2530 -79.8180 275° West 438 504 34,100  Level FlightAware
11:22PM 41.2610 -79.9290 276° West 437 503 34,100 -120 Level FlightAware
11:22PM 41.2690 -80.0430 275° West 435 501 34,000  Descending FlightAware
11:23PM 41.2760 -80.1380 276° West 435 501 34,100 60 Climbing FlightAware
11:24PM 41.2830 -80.2310 276° West 434 499 34,100 -120 Level FlightAware
11:24PM 41.2890 -80.3250 275° West 435 501 34,000  Descending FlightAware
11:25PM 41.2950 -80.4150 275° West 435 501 34,100 60 Climbing FlightAware
11:25PM 41.3020 -80.5140 275° West 435 501 34,100  Level FlightAware
11:26PM 41.3080 -80.6040 275° West 435 501 34,100  Level FlightAware
11:27PM 41.3140 -80.6990 275° West 434 499 34,100 -120 Level FlightAware
11:27PM 41.3190 -80.7860 274° West 434 499 34,000  Descending FlightAware
11:28PM 41.3260 -80.8960 275° West 434 499 34,100 60 Climbing FlightAware
11:28PM 41.3320 -80.9880 275° West 434 499 34,100 -120 Level FlightAware
11:29PM 41.3380 -81.0890 275° West 434 499 34,000  Descending FlightAware
11:29PM 41.3430 -81.1760 274° West 434 499 34,100 60 Climbing FlightAware
11:30PM 41.3480 -81.2700 274° West 435 501 34,100  Level FlightAware
11:31PM 41.3540 -81.3720 275° West 436 502 34,100  Level FlightAware
11:31PM 41.3590 -81.4620 274° West 436 502 34,100  Level FlightAware
11:32PM 41.3650 -81.5570 275° West 437 503 34,100  Level FlightAware
11:32PM 41.3700 -81.6540 274° West 437 503 34,100  Level FlightAware
11:33PM 41.3750 -81.7480 274° West 436 502 34,100  Level FlightAware
11:34PM 41.3800 -81.8360 274° West 436 502 34,100  Level FlightAware
11:34PM 41.3850 -81.9320 274° West 436 502 34,100  Level FlightAware
11:35PM 41.3900 -82.0260 274° West 437 503 34,100  Level FlightAware
11:35PM 41.3950 -82.1150 274° West 436 502 34,100  Level FlightAware
11:36PM 41.4000 -82.2120 274° West 436 502 34,100  Level FlightAware
11:36PM 41.4050 -82.3120 274° West 434 499 34,100  Level FlightAware
11:37PM 41.4090 -82.4010 273° West 434 499 34,100  Level FlightAware
11:38PM 41.4140 -82.4980 274° West 434 499 34,100 -120 Level FlightAware
11:38PM 41.4190 -82.5970 274° West 434 499 34,000 -120 Descending FlightAware
11:39PM 41.4220 -82.6830 273° West 434 499 34,000 60 Level FlightAware
11:40PM 41.4280 -82.8000 274° West 434 499 34,100 60 Climbing FlightAware
11:40PM 41.4310 -82.8830 273° West 434 499 34,100  Level FlightAware
11:41PM 41.4360 -82.9810 274° West 435 501 34,100  Level FlightAware
11:41PM 41.4390 -83.0620 273° West 436 502 34,100  Level FlightAware
11:42PM 41.4430 -83.1590 273° West 437 503 34,100  Level FlightAware
11:42PM 41.4480 -83.2560 274° West 439 505 34,100  Level FlightAware
11:43PM 41.4520 -83.3600 273° West 440 506 34,100  Level FlightAware
11:44PM 41.4560 -83.4620 273° West 441 507 34,100  Level FlightAware
11:44PM 41.4600 -83.5520 273° West 441 507 34,100  Level FlightAware
11:45PM 41.4630 -83.6470 272° West 441 507 34,100  Level FlightAware
11:45PM 41.4670 -83.7460 273° West 440 506 34,100  Level FlightAware
11:46PM 41.4700 -83.8220 273° West 440 506 34,100  Level FlightAware
11:47PM 41.4740 -83.9310 273° West 439 505 34,100  Level FlightAware
11:47PM 41.4770 -84.0170 273° West 440 506 34,100  Level FlightAware
11:48PM 41.4800 -84.1140 272° West 439 505 34,100  Level FlightAware
11:48PM 41.4840 -84.2210 273° West 439 505 34,100  Level FlightAware
11:49PM 41.4860 -84.2920 272° West 439 505 34,100 -120 Level FlightAware
11:49PM 41.4900 -84.4050 273° West 438 504 34,000  Descending FlightAware
11:50PM 41.4930 -84.5020 272° West 438 504 34,100 60 Climbing FlightAware
11:51PM 41.4960 -84.6020 272° West 438 504 34,100  Level FlightAware
11:51PM 41.4990 -84.6880 273° West 438 504 34,100  Level FlightAware
11:52PM 41.5040 -84.7830 274° West 436 502 34,100 -120 Level FlightAware
11:52PM 41.5190 -84.8840 281° West 436 502 34,000 -120 Descending FlightAware
11:53PM 41.5350 -84.9750 283° West 436 502 34,000 60 Level FlightAware
11:53PM 41.5500 -85.0610 283° West 435 501 34,100 60 Climbing FlightAware
11:54PM 41.5660 -85.1540 283° West 435 501 34,100 -120 Level FlightAware
11:55PM 41.5830 -85.2470 284° West 436 502 34,000  Descending FlightAware
11:55PM 41.5990 -85.3390 283° West 437 503 34,100 60 Climbing FlightAware
11:56PM 41.6140 -85.4260 283° West 437 503 34,100  Level FlightAware
11:56PM 41.6320 -85.5240 284° West 438 504 34,100  Level FlightAware
11:57PM 41.6460 -85.6070 283° West 438 504 34,100  Level FlightAware
11:58PM 41.6620 -85.7000 283° West 438 504 34,100  Level FlightAware
11:58PM 41.6810 -85.8050 284° West 438 504 34,100 -120 Level FlightAware
11:59PM 41.6970 -85.9010 283° West 438 504 34,000 -120 Descending FlightAware
11:59PM 41.7120 -85.9900 283° West 439 505 34,000  Level FlightAware
12:00AM 41.7290 -86.0840 284° West 438 504 34,000 60 Level FlightAware
12:00AM 41.7420 -86.1650 282° West 439 505 34,100 60 Climbing FlightAware
12:01AM 41.7580 -86.2600 283° West 439 505 34,100  Level FlightAware
12:02AM 41.7730 -86.3500 283° West 439 505 34,100  Level FlightAware
12:02AM 41.7900 -86.4510 283° West 439 505 34,100  Level FlightAware
12:03AM 41.8060 -86.5480 283° West 439 505 34,100  Level FlightAware
12:03AM 41.8220 -86.6450 283° West 439 505 34,100  Level FlightAware
12:04AM 41.8350 -86.7280 282° West 438 504 34,100  Level FlightAware
12:05AM 41.8510 -86.8240 283° West 437 503 34,100  Level FlightAware
12:05AM 41.8670 -86.9210 283° West 436 502 34,100 -120 Level FlightAware
12:06AM 41.8820 -87.0150 282° West 436 502 34,000  Descending FlightAware
12:06AM 41.8960 -87.1020 282° West 436 502 34,100 -540 Climbing FlightAware
12:07AM 41.9110 -87.1980 282° West 437 503 33,400 -1,860 Descending FlightAware
12:08AM 41.9260 -87.2910 282° West 444 511 31,900 -2,700 Descending FlightAware
12:08AM 41.9420 -87.3910 282° West 452 520 30,200 -2,880 Descending FlightAware
12:09AM 41.9560 -87.4820 282° West 457 526 28,700 -3,000 Descending FlightAware
12:09AM 41.9720 -87.5870 282° West 464 534 26,700 -3,000 Descending FlightAware
12:10AM 41.9880 -87.6870 282° West 463 533 25,100 -2,520 Descending FlightAware
12:10AM 42.0020 -87.7800 281° West 457 526 23,900 -2,220 Descending FlightAware
12:11AM 42.0180 -87.8810 282° West 451 519 22,600 -2,100 Descending FlightAware
12:12AM 42.0330 -87.9800 282° West 444 511 21,400 -1,980 Descending FlightAware
12:12AM 42.0470 -88.0720 282° West 439 505 20,300 -1,980 Descending FlightAware
12:13AM 42.0600 -88.1620 281° West 434 499 19,200 -2,100 Descending FlightAware
12:13AM 42.0740 -88.2560 281° West 422 486 17,900 -2,520 Descending FlightAware
12:14AM 42.0880 -88.3510 281° West 413 475 16,200 -1,800 Descending FlightAware
12:15AM 42.1010 -88.4380 281° West 408 470 15,800 -360 Descending FlightAware
12:15AM 42.1130 -88.5210 281° West 409 471 15,800 -720 Level FlightAware
12:16AM 42.1260 -88.6110 281° West 399 459 15,000 -3,360 Descending FlightAware
12:16AM 42.1380 -88.6980 281° West 383 441 11,800 -3,660 Descending FlightAware
12:17AM 42.1480 -88.7650 281° West 330 380 10,900 -900 Descending FlightAware
12:17AM 42.1570 -88.8310 280° West 262 302 10,800 -120 Descending FlightAware
12:18AM 42.1620 -88.8750 279° West 235 270 10,800 -720 Level FlightAware
12:18AM 42.1550 -88.9020 251° West 229 264 10,200 -1,980 Descending FlightAware
12:19AM 42.1420 -88.9260 234° Southwest 234 269 9,500 -2,340 Descending FlightAware
12:19AM 42.1260 -88.9540 232° Southwest 243 280 8,500 -3,000 Descending FlightAware
12:19AM 42.1110 -88.9790 231° Southwest 262 302 7,300 -3,600 Descending FlightAware
12:19AM 42.1060 -88.9860 226° Southwest 268 308 6,900 -3,540 Descending FlightAware
12:20AM 42.1000 -88.9910 212° Southwest 272 313 6,600 -3,720 Descending FlightAware
12:20AM 42.0900 -88.9960 200° South 274 315 6,100 -3,000 Descending FlightAware
12:20AM 42.0660 -89.0030 192° South 275 316 5,200 -2,700 Descending FlightAware
12:20AM 42.0430 -89.0080 189° South 272 313 4,400 -2,580 Descending FlightAware
12:21AM 42.0190 -89.0150 192° South 269 310 3,500 -2,520 Descending FlightAware
12:21AM 42.0050 -89.0240 206° Southwest 261 300 3,000 -2,280 Descending FlightAware
12:21AM 42.0020 -89.0290 231° Southwest 256 295 2,900 -1,020 Descending FlightAware
12:21AM 41.9970 -89.0390 236° Southwest 245 282 2,800 -960 Descending FlightAware
12:21AM 41.9930 -89.0560 252° West 228 262 2,600 -1,140 Descending FlightAware
12:22AM 41.9930 -89.0800 270° West 212 244 2,300 -720 Descending FlightAware
12:22AM 41.9950 -89.0910 284° West 198 228 2,300  Level FlightAware
12:22AM 41.9990 -89.0980 308° West 186 214 2,300  Level FlightAware
12:22AM 42.0060 -89.1050 323° Northwest 179 206 2,300  Level FlightAware
12:22AM 42.0120 -89.1080 340° North 175 201 2,300  Level FlightAware
12:22AM 42.0210 -89.1100 351° North 164 189 2,300  Level FlightAware
12:23AM 42.0480 -89.1090 North 156 180 2,300  Level FlightAware
12:23AM 42.0620 -89.1070 North 152 175 2,300  Level FlightAware
12:24AM 42.0780 -89.1050 North 133 153 2,300 -180 Level FlightAware
12:24AM 42.0900 -89.1030 North 136 157 2,200 -600 Descending FlightAware
12:24AM 42.1040 -89.1020 North 126 145 1,900 -720 Descending FlightAware
12:25AM 42.1150 -89.1000 North 119 137 1,700 -480 Descending FlightAware
12:25AM 42.1260 -89.0990 North 119 137 1,600 -540 Descending FlightAware
12:25AM 42.1340 -89.0980 North 119 137 1,400 -660 Descending FlightAware
12:26AM 42.1460 -89.0960 North 120 138 1,200 -600 Descending FlightAware
12:26AM 42.1570 -89.0950 North 120 138 1,000 -600 Descending FlightAware
12:26AM 42.1680 -89.0930 North 121 139 800 -540 Descending FlightAware
12:27AM 42.1770 -89.0920 North 122 140 700 -240 Descending FlightAware
12:27AM 42.1930 -89.0900 North 122 140 600 -180 Descending FlightAware